Aeroporto :
LOGIN :

Iscrizione | Disclaimer

   EN    FR    IT 

 










Sommario :    VFR   VFR Marginale   IFR   IFR Intensivo   IFR Molto Intensivo
Visibilità : 
Base nubi : 
>= 8 km
>= 3000ft
5 / 8 km
1000 / 3000 ft
1500m / 5 km
500 / 1000 ft
800 / 1500m
200 / 500 ft
< 800m
< 200 ft
Simboli :   Temporali  Nebbia  Neve Forte  Precipitazioni Forti  Vento > 20 kt
SIGMETs :   Varie  Temporali  Ghiacco  Turbolenza  Onda orograficha  Ceneri Vulcaniche






- Altitudine del aeroporto : 84 ft
- Codice IATA : KOK


EFKK - Kruunupyy

ULTIMO METAR :
  • 271550Z AUTO 25004KT 200V300 9999 FEW015 14/08 Q1020

METARs OBSOLETI :
  • 271520Z AUTO 24005KT 190V290 9999 FEW010 13/09 Q1020
  • 271450Z AUTO 27003KT 220V010 9999 FEW007 SCT008 12/09 Q1020
  • 271420Z AUTO 33003KT 270V040 9999 BKN005 12/09 Q1020
  • 271350Z AUTO 30004KT 250V350 9999 BKN004 11/10 Q1020
  • 271320Z AUTO 30005KT 270V330 9999 -RA OVC003 10/09 Q1020

Previsioni scadute.



MetMap, La meteo Aeronautica in un colpo d'occhio ! - Copyright ORBIFLY Dicembre 2007 - Disclaimer

ORBIFLY MET'MAP TEAM :

Programmazione e sviluppo : Alexandra Zaïnal
Concezione : Baudouin d'Aumeries
Aiuto per la programmazione : Marc-Olivier Méhu
Supporto tecnico e logistico : Manuel Goepfert
Aiuto per la traduzione : Arnaldo La Scala

Contatto : metmap@orbifly.com




FONTI E CREDITI :

   NOAA